<?xml version="1.0" encoding="UTF-8" standalone="no" ?>
<gpx xmlns="http://www.topografix.com/GPX/1/1" xmlns:xsi="http://www.w3.org/2001/XMLSchema-instance" xsi:schemaLocation="http://www.topografix.com/GPX/1/1 http://www.topografix.com/GPX/1/1/gpx.xsd" version="1.1" creator="VisuGPX - https://www.visugpx.com">
  <metadata>
    <name>Premier entraînement avec Françoise</name>
    <desc><![CDATA[promenade au dessus de Seppois, quatrième entrainement.]]></desc>
  </metadata>
  <trk>
    <name><![CDATA[2018-01-31 12:29]]></name>
    <trkseg>
      <trkpt lat="47.54091" lon="7.17092">
        <ele>374.97</ele>
        <time>2018-01-31T11:29:31Z</time>
      </trkpt>
      <trkpt lat="47.54074" lon="7.17108">
        <ele>369.78</ele>
        <time>2018-01-31T11:29:45Z</time>
      </trkpt>
      <trkpt lat="47.54063" lon="7.17134">
        <ele>370.76</ele>
        <time>2018-01-31T11:29:57Z</time>
      </trkpt>
      <trkpt lat="47.54052" lon="7.17161">
        <ele>370.09</ele>
        <time>2018-01-31T11:30:09Z</time>
      </trkpt>
      <trkpt lat="47.54041" lon="7.17184">
        <ele>370.49</ele>
        <time>2018-01-31T11:30:21Z</time>
      </trkpt>
      <trkpt lat="47.54028" lon="7.17205">
        <ele>370</ele>
        <time>2018-01-31T11:30:33Z</time>
      </trkpt>
      <trkpt lat="47.54014" lon="7.17227">
        <ele>369.01</ele>
        <time>2018-01-31T11:30:45Z</time>
      </trkpt>
      <trkpt lat="47.54001" lon="7.17247">
        <ele>368.82</ele>
        <time>2018-01-31T11:30:57Z</time>
      </trkpt>
      <trkpt lat="47.53984" lon="7.17236">
        <ele>370.55</ele>
        <time>2018-01-31T11:31:09Z</time>
      </trkpt>
      <trkpt lat="47.53967" lon="7.17222">
        <ele>370.51</ele>
        <time>2018-01-31T11:31:21Z</time>
      </trkpt>
      <trkpt lat="47.53955" lon="7.17197">
        <ele>372.42</ele>
        <time>2018-01-31T11:31:37Z</time>
      </trkpt>
      <trkpt lat="47.53957" lon="7.17166">
        <ele>373.78</ele>
        <time>2018-01-31T11:31:49Z</time>
      </trkpt>
      <trkpt lat="47.53951" lon="7.17138">
        <ele>373.71</ele>
        <time>2018-01-31T11:31:59Z</time>
      </trkpt>
      <trkpt lat="47.53942" lon="7.17111">
        <ele>372.8</ele>
        <time>2018-01-31T11:32:11Z</time>
      </trkpt>
      <trkpt lat="47.53932" lon="7.17084">
        <ele>373.78</ele>
        <time>2018-01-31T11:32:23Z</time>
      </trkpt>
      <trkpt lat="47.53923" lon="7.17058">
        <ele>375.48</ele>
        <time>2018-01-31T11:32:35Z</time>
      </trkpt>
      <trkpt lat="47.53916" lon="7.1703">
        <ele>373.82</ele>
        <time>2018-01-31T11:32:47Z</time>
      </trkpt>
      <trkpt lat="47.5391" lon="7.17003">
        <ele>376.69</ele>
        <time>2018-01-31T11:32:59Z</time>
      </trkpt>
      <trkpt lat="47.53908" lon="7.16975">
        <ele>377.78</ele>
        <time>2018-01-31T11:33:09Z</time>
      </trkpt>
      <trkpt lat="47.53918" lon="7.16951">
        <ele>379.78</ele>
        <time>2018-01-31T11:33:21Z</time>
      </trkpt>
      <trkpt lat="47.53927" lon="7.16928">
        <ele>379.81</ele>
        <time>2018-01-31T11:33:33Z</time>
      </trkpt>
      <trkpt lat="47.53941" lon="7.16907">
        <ele>381.7</ele>
        <time>2018-01-31T11:33:45Z</time>
      </trkpt>
      <trkpt lat="47.53955" lon="7.16883">
        <ele>383.49</ele>
        <time>2018-01-31T11:33:57Z</time>
      </trkpt>
      <trkpt lat="47.53963" lon="7.16855">
        <ele>383.79</ele>
        <time>2018-01-31T11:34:09Z</time>
      </trkpt>
      <trkpt lat="47.53969" lon="7.16827">
        <ele>384.76</ele>
        <time>2018-01-31T11:34:21Z</time>
      </trkpt>
      <trkpt lat="47.53974" lon="7.16799">
        <ele>384.79</ele>
        <time>2018-01-31T11:34:33Z</time>
      </trkpt>
      <trkpt lat="47.53962" lon="7.16775">
        <ele>382.89</ele>
        <time>2018-01-31T11:34:45Z</time>
      </trkpt>
      <trkpt lat="47.5395" lon="7.16753">
        <ele>382.77</ele>
        <time>2018-01-31T11:34:57Z</time>
      </trkpt>
      <trkpt lat="47.53933" lon="7.16735">
        <ele>385.7</ele>
        <time>2018-01-31T11:35:11Z</time>
      </trkpt>
      <trkpt lat="47.5392" lon="7.16712">
        <ele>388.46</ele>
        <time>2018-01-31T11:35:25Z</time>
      </trkpt>
      <trkpt lat="47.53907" lon="7.1669">
        <ele>391.39</ele>
        <time>2018-01-31T11:35:37Z</time>
      </trkpt>
      <trkpt lat="47.53896" lon="7.16666">
        <ele>392.76</ele>
        <time>2018-01-31T11:35:49Z</time>
      </trkpt>
      <trkpt lat="47.53884" lon="7.16643">
        <ele>394.69</ele>
        <time>2018-01-31T11:36:01Z</time>
      </trkpt>
      <trkpt lat="47.53868" lon="7.16622">
        <ele>397.46</ele>
        <time>2018-01-31T11:36:14Z</time>
      </trkpt>
      <trkpt lat="47.53854" lon="7.16603">
        <ele>399.48</ele>
        <time>2018-01-31T11:36:26Z</time>
      </trkpt>
      <trkpt lat="47.53838" lon="7.16583">
        <ele>399.79</ele>
        <time>2018-01-31T11:36:38Z</time>
      </trkpt>
      <trkpt lat="47.53824" lon="7.16564">
        <ele>400.79</ele>
        <time>2018-01-31T11:36:50Z</time>
      </trkpt>
      <trkpt lat="47.53808" lon="7.16545">
        <ele>401.78</ele>
        <time>2018-01-31T11:37:02Z</time>
      </trkpt>
      <trkpt lat="47.53794" lon="7.16525">
        <ele>403.49</ele>
        <time>2018-01-31T11:37:14Z</time>
      </trkpt>
      <trkpt lat="47.53783" lon="7.16503">
        <ele>404.7</ele>
        <time>2018-01-31T11:37:26Z</time>
      </trkpt>
      <trkpt lat="47.53769" lon="7.16485">
        <ele>406.76</ele>
        <time>2018-01-31T11:37:38Z</time>
      </trkpt>
      <trkpt lat="47.53756" lon="7.16464">
        <ele>408.7</ele>
        <time>2018-01-31T11:37:50Z</time>
      </trkpt>
      <trkpt lat="47.53742" lon="7.1644">
        <ele>409.7</ele>
        <time>2018-01-31T11:38:04Z</time>
      </trkpt>
      <trkpt lat="47.53723" lon="7.16442">
        <ele>411.46</ele>
        <time>2018-01-31T11:38:18Z</time>
      </trkpt>
      <trkpt lat="47.53712" lon="7.16463">
        <ele>411.79</ele>
        <time>2018-01-31T11:38:28Z</time>
      </trkpt>
      <trkpt lat="47.53702" lon="7.16486">
        <ele>412.55</ele>
        <time>2018-01-31T11:38:38Z</time>
      </trkpt>
      <trkpt lat="47.5369" lon="7.16508">
        <ele>413.78</ele>
        <time>2018-01-31T11:38:50Z</time>
      </trkpt>
      <trkpt lat="47.53674" lon="7.16529">
        <ele>414.48</ele>
        <time>2018-01-31T11:39:02Z</time>
      </trkpt>
      <trkpt lat="47.53657" lon="7.16547">
        <ele>415.49</ele>
        <time>2018-01-31T11:39:14Z</time>
      </trkpt>
      <trkpt lat="47.53641" lon="7.16566">
        <ele>414.79</ele>
        <time>2018-01-31T11:39:26Z</time>
      </trkpt>
      <trkpt lat="47.53623" lon="7.16585">
        <ele>415.79</ele>
        <time>2018-01-31T11:39:38Z</time>
      </trkpt>
      <trkpt lat="47.53607" lon="7.16601">
        <ele>414.81</ele>
        <time>2018-01-31T11:39:50Z</time>
      </trkpt>
      <trkpt lat="47.53589" lon="7.16618">
        <ele>414.79</ele>
        <time>2018-01-31T11:40:02Z</time>
      </trkpt>
      <trkpt lat="47.5357" lon="7.16632">
        <ele>414.79</ele>
        <time>2018-01-31T11:40:14Z</time>
      </trkpt>
      <trkpt lat="47.53551" lon="7.16641">
        <ele>415.99</ele>
        <time>2018-01-31T11:40:26Z</time>
      </trkpt>
      <trkpt lat="47.53531" lon="7.16644">
        <ele>416.7</ele>
        <time>2018-01-31T11:40:39Z</time>
      </trkpt>
      <trkpt lat="47.53511" lon="7.16644">
        <ele>417.76</ele>
        <time>2018-01-31T11:40:51Z</time>
      </trkpt>
      <trkpt lat="47.53489" lon="7.16645">
        <ele>417.81</ele>
        <time>2018-01-31T11:41:03Z</time>
      </trkpt>
      <trkpt lat="47.53469" lon="7.16646">
        <ele>417.09</ele>
        <time>2018-01-31T11:41:15Z</time>
      </trkpt>
      <trkpt lat="47.53453" lon="7.16658">
        <ele>416.79</ele>
        <time>2018-01-31T11:41:26Z</time>
      </trkpt>
      <trkpt lat="47.53439" lon="7.16676">
        <ele>416.79</ele>
        <time>2018-01-31T11:41:36Z</time>
      </trkpt>
      <trkpt lat="47.53435" lon="7.16706">
        <ele>417.02</ele>
        <time>2018-01-31T11:41:50Z</time>
      </trkpt>
      <trkpt lat="47.53439" lon="7.16733">
        <ele>417.7</ele>
        <time>2018-01-31T11:42:02Z</time>
      </trkpt>
      <trkpt lat="47.53444" lon="7.1676">
        <ele>417.09</ele>
        <time>2018-01-31T11:42:14Z</time>
      </trkpt>
      <trkpt lat="47.53428" lon="7.16745">
        <ele>416.8</ele>
        <time>2018-01-31T11:42:28Z</time>
      </trkpt>
      <trkpt lat="47.53412" lon="7.16724">
        <ele>417.4</ele>
        <time>2018-01-31T11:42:40Z</time>
      </trkpt>
      <trkpt lat="47.53397" lon="7.16706">
        <ele>419.49</ele>
        <time>2018-01-31T11:42:52Z</time>
      </trkpt>
      <trkpt lat="47.53382" lon="7.16685">
        <ele>421.78</ele>
        <time>2018-01-31T11:43:04Z</time>
      </trkpt>
      <trkpt lat="47.53367" lon="7.16665">
        <ele>422.78</ele>
        <time>2018-01-31T11:43:16Z</time>
      </trkpt>
      <trkpt lat="47.5335" lon="7.16646">
        <ele>422.79</ele>
        <time>2018-01-31T11:43:28Z</time>
      </trkpt>
      <trkpt lat="47.53333" lon="7.16626">
        <ele>425.4</ele>
        <time>2018-01-31T11:43:40Z</time>
      </trkpt>
      <trkpt lat="47.53319" lon="7.16608">
        <ele>426.7</ele>
        <time>2018-01-31T11:43:50Z</time>
      </trkpt>
      <trkpt lat="47.53304" lon="7.16586">
        <ele>430.45</ele>
        <time>2018-01-31T11:44:04Z</time>
      </trkpt>
      <trkpt lat="47.53288" lon="7.16569">
        <ele>432.48</ele>
        <time>2018-01-31T11:44:16Z</time>
      </trkpt>
      <trkpt lat="47.53277" lon="7.16544">
        <ele>432.7</ele>
        <time>2018-01-31T11:44:30Z</time>
      </trkpt>
      <trkpt lat="47.53264" lon="7.16521">
        <ele>433.28</ele>
        <time>2018-01-31T11:44:42Z</time>
      </trkpt>
      <trkpt lat="47.53253" lon="7.16499">
        <ele>434.7</ele>
        <time>2018-01-31T11:44:54Z</time>
      </trkpt>
      <trkpt lat="47.53238" lon="7.16482">
        <ele>435.48</ele>
        <time>2018-01-31T11:45:04Z</time>
      </trkpt>
      <trkpt lat="47.53225" lon="7.16459">
        <ele>436.71</ele>
        <time>2018-01-31T11:45:18Z</time>
      </trkpt>
      <trkpt lat="47.53208" lon="7.16442">
        <ele>437.7</ele>
        <time>2018-01-31T11:45:28Z</time>
      </trkpt>
      <trkpt lat="47.53194" lon="7.16425">
        <ele>436.18</ele>
        <time>2018-01-31T11:45:38Z</time>
      </trkpt>
      <trkpt lat="47.53179" lon="7.16405">
        <ele>437.7</ele>
        <time>2018-01-31T11:45:48Z</time>
      </trkpt>
      <trkpt lat="47.53165" lon="7.16382">
        <ele>435.88</ele>
        <time>2018-01-31T11:46:00Z</time>
      </trkpt>
      <trkpt lat="47.5315" lon="7.16362">
        <ele>436.77</ele>
        <time>2018-01-31T11:46:12Z</time>
      </trkpt>
      <trkpt lat="47.53135" lon="7.16342">
        <ele>437.08</ele>
        <time>2018-01-31T11:46:24Z</time>
      </trkpt>
      <trkpt lat="47.53123" lon="7.16318">
        <ele>435.82</ele>
        <time>2018-01-31T11:46:35Z</time>
      </trkpt>
      <trkpt lat="47.53108" lon="7.16295">
        <ele>436.79</ele>
        <time>2018-01-31T11:46:47Z</time>
      </trkpt>
      <trkpt lat="47.53095" lon="7.16272">
        <ele>436.78</ele>
        <time>2018-01-31T11:46:59Z</time>
      </trkpt>
      <trkpt lat="47.53083" lon="7.16251">
        <ele>436.09</ele>
        <time>2018-01-31T11:47:11Z</time>
      </trkpt>
      <trkpt lat="47.53067" lon="7.16229">
        <ele>436.7</ele>
        <time>2018-01-31T11:47:23Z</time>
      </trkpt>
      <trkpt lat="47.53054" lon="7.16211">
        <ele>438.76</ele>
        <time>2018-01-31T11:47:33Z</time>
      </trkpt>
      <trkpt lat="47.53038" lon="7.1619">
        <ele>440.46</ele>
        <time>2018-01-31T11:47:45Z</time>
      </trkpt>
      <trkpt lat="47.53023" lon="7.16169">
        <ele>441.79</ele>
        <time>2018-01-31T11:47:55Z</time>
      </trkpt>
      <trkpt lat="47.53009" lon="7.16152">
        <ele>439.88</ele>
        <time>2018-01-31T11:48:05Z</time>
      </trkpt>
      <trkpt lat="47.52992" lon="7.16135">
        <ele>437.82</ele>
        <time>2018-01-31T11:48:17Z</time>
      </trkpt>
      <trkpt lat="47.52975" lon="7.16121">
        <ele>436.86</ele>
        <time>2018-01-31T11:48:27Z</time>
      </trkpt>
      <trkpt lat="47.52959" lon="7.16103">
        <ele>437.76</ele>
        <time>2018-01-31T11:48:39Z</time>
      </trkpt>
      <trkpt lat="47.5294" lon="7.16088">
        <ele>435.82</ele>
        <time>2018-01-31T11:48:51Z</time>
      </trkpt>
      <trkpt lat="47.52922" lon="7.16077">
        <ele>434.88</ele>
        <time>2018-01-31T11:49:01Z</time>
      </trkpt>
      <trkpt lat="47.52908" lon="7.16058">
        <ele>435.72</ele>
        <time>2018-01-31T11:49:11Z</time>
      </trkpt>
      <trkpt lat="47.52891" lon="7.16044">
        <ele>435.79</ele>
        <time>2018-01-31T11:49:21Z</time>
      </trkpt>
      <trkpt lat="47.52875" lon="7.16026">
        <ele>434.8</ele>
        <time>2018-01-31T11:49:33Z</time>
      </trkpt>
      <trkpt lat="47.52859" lon="7.16007">
        <ele>434.79</ele>
        <time>2018-01-31T11:49:45Z</time>
      </trkpt>
      <trkpt lat="47.52846" lon="7.15986">
        <ele>433.86</ele>
        <time>2018-01-31T11:49:56Z</time>
      </trkpt>
      <trkpt lat="47.52831" lon="7.15969">
        <ele>435.48</ele>
        <time>2018-01-31T11:50:06Z</time>
      </trkpt>
      <trkpt lat="47.52816" lon="7.15952">
        <ele>435.79</ele>
        <time>2018-01-31T11:50:16Z</time>
      </trkpt>
      <trkpt lat="47.52805" lon="7.1593">
        <ele>435.79</ele>
        <time>2018-01-31T11:50:26Z</time>
      </trkpt>
      <trkpt lat="47.52794" lon="7.15909">
        <ele>434.79</ele>
        <time>2018-01-31T11:50:38Z</time>
      </trkpt>
      <trkpt lat="47.52778" lon="7.15893">
        <ele>434.79</ele>
        <time>2018-01-31T11:50:50Z</time>
      </trkpt>
      <trkpt lat="47.52763" lon="7.15874">
        <ele>434.81</ele>
        <time>2018-01-31T11:51:00Z</time>
      </trkpt>
      <trkpt lat="47.52746" lon="7.1586">
        <ele>436.75</ele>
        <time>2018-01-31T11:51:10Z</time>
      </trkpt>
      <trkpt lat="47.52732" lon="7.15842">
        <ele>437.7</ele>
        <time>2018-01-31T11:51:20Z</time>
      </trkpt>
      <trkpt lat="47.52718" lon="7.15823">
        <ele>435.79</ele>
        <time>2018-01-31T11:51:32Z</time>
      </trkpt>
      <trkpt lat="47.52699" lon="7.15813">
        <ele>435.01</ele>
        <time>2018-01-31T11:51:41Z</time>
      </trkpt>
      <trkpt lat="47.52679" lon="7.15808">
        <ele>434.88</ele>
        <time>2018-01-31T11:51:53Z</time>
      </trkpt>
      <trkpt lat="47.52658" lon="7.15813">
        <ele>434.73</ele>
        <time>2018-01-31T11:52:03Z</time>
      </trkpt>
      <trkpt lat="47.5264" lon="7.15828">
        <ele>434.79</ele>
        <time>2018-01-31T11:52:13Z</time>
      </trkpt>
      <trkpt lat="47.52625" lon="7.15844">
        <ele>434.79</ele>
        <time>2018-01-31T11:52:23Z</time>
      </trkpt>
      <trkpt lat="47.52613" lon="7.15864">
        <ele>436.49</ele>
        <time>2018-01-31T11:52:33Z</time>
      </trkpt>
      <trkpt lat="47.52601" lon="7.15886">
        <ele>436.79</ele>
        <time>2018-01-31T11:52:43Z</time>
      </trkpt>
      <trkpt lat="47.52587" lon="7.15903">
        <ele>437.76</ele>
        <time>2018-01-31T11:52:53Z</time>
      </trkpt>
      <trkpt lat="47.52568" lon="7.15916">
        <ele>437.79</ele>
        <time>2018-01-31T11:53:05Z</time>
      </trkpt>
      <trkpt lat="47.5255" lon="7.15928">
        <ele>437.09</ele>
        <time>2018-01-31T11:53:17Z</time>
      </trkpt>
      <trkpt lat="47.5253" lon="7.15939">
        <ele>436.79</ele>
        <time>2018-01-31T11:53:29Z</time>
      </trkpt>
      <trkpt lat="47.52515" lon="7.15953">
        <ele>436.79</ele>
        <time>2018-01-31T11:53:41Z</time>
      </trkpt>
      <trkpt lat="47.52495" lon="7.15961">
        <ele>437.79</ele>
        <time>2018-01-31T11:53:55Z</time>
      </trkpt>
      <trkpt lat="47.52477" lon="7.15972">
        <ele>435.19</ele>
        <time>2018-01-31T11:54:05Z</time>
      </trkpt>
      <trkpt lat="47.52473" lon="7.15999">
        <ele>431.8</ele>
        <time>2018-01-31T11:54:23Z</time>
      </trkpt>
      <trkpt lat="47.52481" lon="7.16025">
        <ele>429.9</ele>
        <time>2018-01-31T11:54:39Z</time>
      </trkpt>
      <trkpt lat="47.52494" lon="7.16049">
        <ele>430.78</ele>
        <time>2018-01-31T11:55:01Z</time>
      </trkpt>
      <trkpt lat="47.52504" lon="7.16073">
        <ele>430.79</ele>
        <time>2018-01-31T11:55:21Z</time>
      </trkpt>
      <trkpt lat="47.52519" lon="7.1609">
        <ele>429.8</ele>
        <time>2018-01-31T11:55:41Z</time>
      </trkpt>
      <trkpt lat="47.52532" lon="7.16108">
        <ele>428.8</ele>
        <time>2018-01-31T11:55:56Z</time>
      </trkpt>
      <trkpt lat="47.52546" lon="7.16126">
        <ele>428.79</ele>
        <time>2018-01-31T11:56:12Z</time>
      </trkpt>
      <trkpt lat="47.52562" lon="7.16142">
        <ele>427.88</ele>
        <time>2018-01-31T11:56:29Z</time>
      </trkpt>
      <trkpt lat="47.52575" lon="7.16164">
        <ele>424.79</ele>
        <time>2018-01-31T11:57:00Z</time>
      </trkpt>
      <trkpt lat="47.52588" lon="7.16183">
        <ele>423.79</ele>
        <time>2018-01-31T11:57:22Z</time>
      </trkpt>
      <trkpt lat="47.526" lon="7.16208">
        <ele>426.49</ele>
        <time>2018-01-31T11:57:40Z</time>
      </trkpt>
      <trkpt lat="47.52604" lon="7.16235">
        <ele>423.83</ele>
        <time>2018-01-31T11:57:54Z</time>
      </trkpt>
      <trkpt lat="47.52619" lon="7.16256">
        <ele>426.48</ele>
        <time>2018-01-31T11:58:04Z</time>
      </trkpt>
      <trkpt lat="47.52636" lon="7.16274">
        <ele>427.7</ele>
        <time>2018-01-31T11:58:16Z</time>
      </trkpt>
      <trkpt lat="47.52654" lon="7.16287">
        <ele>424.82</ele>
        <time>2018-01-31T11:58:28Z</time>
      </trkpt>
      <trkpt lat="47.52672" lon="7.16301">
        <ele>424.77</ele>
        <time>2018-01-31T11:58:42Z</time>
      </trkpt>
      <trkpt lat="47.52688" lon="7.16315">
        <ele>425</ele>
        <time>2018-01-31T11:58:54Z</time>
      </trkpt>
      <trkpt lat="47.52704" lon="7.16331">
        <ele>423.88</ele>
        <time>2018-01-31T11:59:04Z</time>
      </trkpt>
      <trkpt lat="47.52718" lon="7.16348">
        <ele>426.48</ele>
        <time>2018-01-31T11:59:14Z</time>
      </trkpt>
      <trkpt lat="47.52733" lon="7.16367">
        <ele>426.7</ele>
        <time>2018-01-31T11:59:26Z</time>
      </trkpt>
      <trkpt lat="47.52753" lon="7.16379">
        <ele>427.78</ele>
        <time>2018-01-31T11:59:36Z</time>
      </trkpt>
      <trkpt lat="47.5277" lon="7.16397">
        <ele>427.79</ele>
        <time>2018-01-31T11:59:49Z</time>
      </trkpt>
      <trkpt lat="47.52788" lon="7.16414">
        <ele>430.43</ele>
        <time>2018-01-31T12:00:05Z</time>
      </trkpt>
      <trkpt lat="47.52804" lon="7.1643">
        <ele>430.52</ele>
        <time>2018-01-31T12:00:17Z</time>
      </trkpt>
      <trkpt lat="47.52819" lon="7.16444">
        <ele>429.79</ele>
        <time>2018-01-31T12:00:27Z</time>
      </trkpt>
      <trkpt lat="47.52836" lon="7.16461">
        <ele>431.4</ele>
        <time>2018-01-31T12:00:41Z</time>
      </trkpt>
      <trkpt lat="47.5285" lon="7.16479">
        <ele>429.59</ele>
        <time>2018-01-31T12:00:51Z</time>
      </trkpt>
      <trkpt lat="47.52862" lon="7.16499">
        <ele>429.79</ele>
        <time>2018-01-31T12:01:02Z</time>
      </trkpt>
      <trkpt lat="47.52877" lon="7.16521">
        <ele>432.54</ele>
        <time>2018-01-31T12:01:14Z</time>
      </trkpt>
      <trkpt lat="47.52891" lon="7.16542">
        <ele>433.76</ele>
        <time>2018-01-31T12:01:26Z</time>
      </trkpt>
      <trkpt lat="47.52905" lon="7.1656">
        <ele>434.78</ele>
        <time>2018-01-31T12:01:36Z</time>
      </trkpt>
      <trkpt lat="47.5292" lon="7.16579">
        <ele>433.09</ele>
        <time>2018-01-31T12:01:48Z</time>
      </trkpt>
      <trkpt lat="47.52936" lon="7.16597">
        <ele>432.73</ele>
        <time>2018-01-31T12:01:58Z</time>
      </trkpt>
      <trkpt lat="47.52953" lon="7.16613">
        <ele>434.72</ele>
        <time>2018-01-31T12:02:10Z</time>
      </trkpt>
      <trkpt lat="47.52973" lon="7.16623">
        <ele>434.82</ele>
        <time>2018-01-31T12:02:22Z</time>
      </trkpt>
      <trkpt lat="47.52993" lon="7.1663">
        <ele>433.87</ele>
        <time>2018-01-31T12:02:34Z</time>
      </trkpt>
      <trkpt lat="47.53012" lon="7.16643">
        <ele>433.73</ele>
        <time>2018-01-31T12:02:46Z</time>
      </trkpt>
      <trkpt lat="47.53032" lon="7.16658">
        <ele>434.79</ele>
        <time>2018-01-31T12:02:58Z</time>
      </trkpt>
      <trkpt lat="47.5305" lon="7.16674">
        <ele>435.07</ele>
        <time>2018-01-31T12:03:10Z</time>
      </trkpt>
      <trkpt lat="47.53069" lon="7.16692">
        <ele>434.81</ele>
        <time>2018-01-31T12:03:22Z</time>
      </trkpt>
      <trkpt lat="47.53086" lon="7.16705">
        <ele>433.79</ele>
        <time>2018-01-31T12:03:32Z</time>
      </trkpt>
      <trkpt lat="47.53103" lon="7.16718">
        <ele>434.09</ele>
        <time>2018-01-31T12:03:44Z</time>
      </trkpt>
      <trkpt lat="47.53121" lon="7.1673">
        <ele>432.52</ele>
        <time>2018-01-31T12:03:54Z</time>
      </trkpt>
      <trkpt lat="47.53139" lon="7.16744">
        <ele>432.77</ele>
        <time>2018-01-31T12:04:06Z</time>
      </trkpt>
      <trkpt lat="47.53158" lon="7.16757">
        <ele>434.7</ele>
        <time>2018-01-31T12:04:18Z</time>
      </trkpt>
      <trkpt lat="47.53176" lon="7.16765">
        <ele>434.7</ele>
        <time>2018-01-31T12:04:32Z</time>
      </trkpt>
      <trkpt lat="47.53195" lon="7.16776">
        <ele>435.79</ele>
        <time>2018-01-31T12:04:44Z</time>
      </trkpt>
      <trkpt lat="47.53213" lon="7.16786">
        <ele>435.81</ele>
        <time>2018-01-31T12:04:54Z</time>
      </trkpt>
      <trkpt lat="47.53229" lon="7.168">
        <ele>434.86</ele>
        <time>2018-01-31T12:05:04Z</time>
      </trkpt>
      <trkpt lat="47.53248" lon="7.16804">
        <ele>434.09</ele>
        <time>2018-01-31T12:05:16Z</time>
      </trkpt>
      <trkpt lat="47.53266" lon="7.16812">
        <ele>432.82</ele>
        <time>2018-01-31T12:05:26Z</time>
      </trkpt>
      <trkpt lat="47.53285" lon="7.1682">
        <ele>431.09</ele>
        <time>2018-01-31T12:05:36Z</time>
      </trkpt>
      <trkpt lat="47.53306" lon="7.16817">
        <ele>427.2</ele>
        <time>2018-01-31T12:05:46Z</time>
      </trkpt>
      <trkpt lat="47.53324" lon="7.16814">
        <ele>424.21</ele>
        <time>2018-01-31T12:05:56Z</time>
      </trkpt>
      <trkpt lat="47.53343" lon="7.16809">
        <ele>422.82</ele>
        <time>2018-01-31T12:06:06Z</time>
      </trkpt>
      <trkpt lat="47.53363" lon="7.168">
        <ele>422.03</ele>
        <time>2018-01-31T12:06:18Z</time>
      </trkpt>
      <trkpt lat="47.53384" lon="7.16797">
        <ele>421.79</ele>
        <time>2018-01-31T12:06:30Z</time>
      </trkpt>
      <trkpt lat="47.53404" lon="7.16794">
        <ele>422.49</ele>
        <time>2018-01-31T12:06:42Z</time>
      </trkpt>
      <trkpt lat="47.53424" lon="7.16791">
        <ele>421.09</ele>
        <time>2018-01-31T12:06:54Z</time>
      </trkpt>
      <trkpt lat="47.53443" lon="7.16787">
        <ele>421.79</ele>
        <time>2018-01-31T12:07:04Z</time>
      </trkpt>
      <trkpt lat="47.53458" lon="7.16808">
        <ele>419.88</ele>
        <time>2018-01-31T12:07:20Z</time>
      </trkpt>
      <trkpt lat="47.53465" lon="7.16832">
        <ele>419.09</ele>
        <time>2018-01-31T12:07:32Z</time>
      </trkpt>
      <trkpt lat="47.5347" lon="7.16862">
        <ele>417.8</ele>
        <time>2018-01-31T12:07:44Z</time>
      </trkpt>
      <trkpt lat="47.53474" lon="7.16892">
        <ele>416.82</ele>
        <time>2018-01-31T12:07:56Z</time>
      </trkpt>
      <trkpt lat="47.53481" lon="7.1692">
        <ele>416.58</ele>
        <time>2018-01-31T12:08:08Z</time>
      </trkpt>
      <trkpt lat="47.53487" lon="7.16949">
        <ele>414.8</ele>
        <time>2018-01-31T12:08:20Z</time>
      </trkpt>
      <trkpt lat="47.53491" lon="7.16979">
        <ele>412.1</ele>
        <time>2018-01-31T12:08:32Z</time>
      </trkpt>
      <trkpt lat="47.53497" lon="7.17008">
        <ele>410.88</ele>
        <time>2018-01-31T12:08:44Z</time>
      </trkpt>
      <trkpt lat="47.53503" lon="7.17035">
        <ele>410.79</ele>
        <time>2018-01-31T12:08:56Z</time>
      </trkpt>
      <trkpt lat="47.53509" lon="7.17062">
        <ele>410.08</ele>
        <time>2018-01-31T12:09:06Z</time>
      </trkpt>
      <trkpt lat="47.53514" lon="7.1709">
        <ele>408.79</ele>
        <time>2018-01-31T12:09:18Z</time>
      </trkpt>
      <trkpt lat="47.5352" lon="7.17117">
        <ele>407.88</ele>
        <time>2018-01-31T12:09:28Z</time>
      </trkpt>
      <trkpt lat="47.53525" lon="7.17147">
        <ele>406.82</ele>
        <time>2018-01-31T12:09:40Z</time>
      </trkpt>
      <trkpt lat="47.53529" lon="7.17177">
        <ele>405.88</ele>
        <time>2018-01-31T12:09:52Z</time>
      </trkpt>
      <trkpt lat="47.53532" lon="7.17203">
        <ele>404.88</ele>
        <time>2018-01-31T12:10:02Z</time>
      </trkpt>
      <trkpt lat="47.53537" lon="7.1723">
        <ele>403.1</ele>
        <time>2018-01-31T12:10:12Z</time>
      </trkpt>
      <trkpt lat="47.53542" lon="7.1726">
        <ele>401.8</ele>
        <time>2018-01-31T12:10:24Z</time>
      </trkpt>
      <trkpt lat="47.53546" lon="7.17287">
        <ele>400.09</ele>
        <time>2018-01-31T12:10:34Z</time>
      </trkpt>
      <trkpt lat="47.53548" lon="7.17316">
        <ele>398.88</ele>
        <time>2018-01-31T12:10:46Z</time>
      </trkpt>
      <trkpt lat="47.53551" lon="7.17345">
        <ele>396.88</ele>
        <time>2018-01-31T12:10:57Z</time>
      </trkpt>
      <trkpt lat="47.53555" lon="7.17375">
        <ele>393.91</ele>
        <time>2018-01-31T12:11:09Z</time>
      </trkpt>
      <trkpt lat="47.53558" lon="7.17404">
        <ele>392.88</ele>
        <time>2018-01-31T12:11:21Z</time>
      </trkpt>
      <trkpt lat="47.53563" lon="7.17436">
        <ele>392.49</ele>
        <time>2018-01-31T12:11:33Z</time>
      </trkpt>
      <trkpt lat="47.53569" lon="7.17465">
        <ele>390.82</ele>
        <time>2018-01-31T12:11:45Z</time>
      </trkpt>
      <trkpt lat="47.53575" lon="7.17496">
        <ele>390.09</ele>
        <time>2018-01-31T12:11:57Z</time>
      </trkpt>
      <trkpt lat="47.53578" lon="7.17523">
        <ele>387.91</ele>
        <time>2018-01-31T12:12:07Z</time>
      </trkpt>
      <trkpt lat="47.53591" lon="7.17549">
        <ele>386.09</ele>
        <time>2018-01-31T12:12:20Z</time>
      </trkpt>
      <trkpt lat="47.53606" lon="7.17564">
        <ele>386.7</ele>
        <time>2018-01-31T12:12:30Z</time>
      </trkpt>
      <trkpt lat="47.53619" lon="7.17589">
        <ele>386.88</ele>
        <time>2018-01-31T12:12:42Z</time>
      </trkpt>
      <trkpt lat="47.53633" lon="7.17609">
        <ele>385.88</ele>
        <time>2018-01-31T12:12:58Z</time>
      </trkpt>
      <trkpt lat="47.53649" lon="7.17626">
        <ele>385.79</ele>
        <time>2018-01-31T12:13:08Z</time>
      </trkpt>
      <trkpt lat="47.53668" lon="7.17642">
        <ele>384.12</ele>
        <time>2018-01-31T12:13:20Z</time>
      </trkpt>
      <trkpt lat="47.53686" lon="7.17653">
        <ele>382.79</ele>
        <time>2018-01-31T12:13:30Z</time>
      </trkpt>
      <trkpt lat="47.53706" lon="7.17664">
        <ele>382.79</ele>
        <time>2018-01-31T12:13:42Z</time>
      </trkpt>
      <trkpt lat="47.53726" lon="7.1767">
        <ele>381.79</ele>
        <time>2018-01-31T12:13:54Z</time>
      </trkpt>
      <trkpt lat="47.53744" lon="7.1766">
        <ele>381.09</ele>
        <time>2018-01-31T12:14:05Z</time>
      </trkpt>
      <trkpt lat="47.53759" lon="7.17645">
        <ele>379.8</ele>
        <time>2018-01-31T12:14:15Z</time>
      </trkpt>
      <trkpt lat="47.53776" lon="7.17627">
        <ele>380.09</ele>
        <time>2018-01-31T12:14:27Z</time>
      </trkpt>
      <trkpt lat="47.53785" lon="7.17603">
        <ele>376.82</ele>
        <time>2018-01-31T12:14:37Z</time>
      </trkpt>
      <trkpt lat="47.53793" lon="7.17575">
        <ele>375.8</ele>
        <time>2018-01-31T12:14:49Z</time>
      </trkpt>
      <trkpt lat="47.538" lon="7.17545">
        <ele>374.82</ele>
        <time>2018-01-31T12:15:01Z</time>
      </trkpt>
      <trkpt lat="47.53807" lon="7.17516">
        <ele>375.09</ele>
        <time>2018-01-31T12:15:13Z</time>
      </trkpt>
      <trkpt lat="47.53816" lon="7.1749">
        <ele>376.49</ele>
        <time>2018-01-31T12:15:25Z</time>
      </trkpt>
      <trkpt lat="47.53823" lon="7.17464">
        <ele>376.42</ele>
        <time>2018-01-31T12:15:37Z</time>
      </trkpt>
      <trkpt lat="47.53833" lon="7.17438">
        <ele>378.78</ele>
        <time>2018-01-31T12:15:49Z</time>
      </trkpt>
      <trkpt lat="47.53845" lon="7.17415">
        <ele>378.58</ele>
        <time>2018-01-31T12:15:59Z</time>
      </trkpt>
      <trkpt lat="47.53855" lon="7.17392">
        <ele>376.89</ele>
        <time>2018-01-31T12:16:09Z</time>
      </trkpt>
      <trkpt lat="47.53867" lon="7.17366">
        <ele>375.88</ele>
        <time>2018-01-31T12:16:21Z</time>
      </trkpt>
      <trkpt lat="47.5388" lon="7.17343">
        <ele>375.79</ele>
        <time>2018-01-31T12:16:33Z</time>
      </trkpt>
      <trkpt lat="47.53892" lon="7.17317">
        <ele>375.79</ele>
        <time>2018-01-31T12:16:45Z</time>
      </trkpt>
      <trkpt lat="47.53905" lon="7.17295">
        <ele>374.79</ele>
        <time>2018-01-31T12:16:57Z</time>
      </trkpt>
      <trkpt lat="47.53919" lon="7.17274">
        <ele>374.09</ele>
        <time>2018-01-31T12:17:09Z</time>
      </trkpt>
      <trkpt lat="47.53929" lon="7.17252">
        <ele>374.72</ele>
        <time>2018-01-31T12:17:21Z</time>
      </trkpt>
      <trkpt lat="47.53941" lon="7.1723">
        <ele>374.79</ele>
        <time>2018-01-31T12:17:31Z</time>
      </trkpt>
      <trkpt lat="47.53961" lon="7.1723">
        <ele>375.79</ele>
        <time>2018-01-31T12:17:45Z</time>
      </trkpt>
      <trkpt lat="47.53981" lon="7.17239">
        <ele>374.1</ele>
        <time>2018-01-31T12:17:57Z</time>
      </trkpt>
      <trkpt lat="47.54" lon="7.17249">
        <ele>372.8</ele>
        <time>2018-01-31T12:18:09Z</time>
      </trkpt>
      <trkpt lat="47.54017" lon="7.17231">
        <ele>373.71</ele>
        <time>2018-01-31T12:18:21Z</time>
      </trkpt>
      <trkpt lat="47.54033" lon="7.1721">
        <ele>372.82</ele>
        <time>2018-01-31T12:18:33Z</time>
      </trkpt>
      <trkpt lat="47.54043" lon="7.17188">
        <ele>372.85</ele>
        <time>2018-01-31T12:18:43Z</time>
      </trkpt>
      <trkpt lat="47.54053" lon="7.17163">
        <ele>373.76</ele>
        <time>2018-01-31T12:18:54Z</time>
      </trkpt>
      <trkpt lat="47.54062" lon="7.1714">
        <ele>372.8</ele>
        <time>2018-01-31T12:19:04Z</time>
      </trkpt>
      <trkpt lat="47.54071" lon="7.17116">
        <ele>372.79</ele>
        <time>2018-01-31T12:19:14Z</time>
      </trkpt>
      <trkpt lat="47.54082" lon="7.17091">
        <ele>372.06</ele>
        <time>2018-01-31T12:19:26Z</time>
      </trkpt>
      <trkpt lat="47.54095" lon="7.17069">
        <ele>371.87</ele>
        <time>2018-01-31T12:19:38Z</time>
      </trkpt>
      <trkpt lat="47.54111" lon="7.17051">
        <ele>370.79</ele>
        <time>2018-01-31T12:19:50Z</time>
      </trkpt>
      <trkpt lat="47.54129" lon="7.17056">
        <ele>369.73</ele>
        <time>2018-01-31T12:20:04Z</time>
      </trkpt>
      <trkpt lat="47.54146" lon="7.17066">
        <ele>370.49</ele>
        <time>2018-01-31T12:20:16Z</time>
      </trkpt>
    </trkseg>
  </trk>
</gpx>